Time;durP1;ratioP1;P1;durP2;ratioP2;P2;SDS_P1;SDS_P2;PMS_P1;PMS_P2;Temp;Humidity;BMP_temperature;BMP_pressure;BME280_temperature;BME280_humidity;BME280_pressure;Samples;Min_cycle;Max_cycle;Signal;HPM_P1;HPM_P2
2023/03/13 00:00:01;;;;;;;8.27;7.17;;;;;;;;;;5115616;28;20482;-65
2023/03/13 00:02:28;;;;;;;10.47;8.03;;;;;;;;;;5115651;28;20485;-65
2023/03/13 00:04:55;;;;;;;9.27;7.10;;;;;;;;;;5115521;28;20545;-65
2023/03/13 00:07:22;;;;;;;10.40;8.07;;;;;;;;;;5115422;28;20537;-65
2023/03/13 00:09:49;;;;;;;14.17;8.83;;;;;;;;;;5115635;28;20564;-65
2023/03/13 00:12:16;;;;;;;10.30;7.47;;;;;;;;;;5115578;28;20446;-65
2023/03/13 00:14:45;;;;;;;10.43;8.37;;;;;;;;;;5115487;28;20470;-65
2023/03/13 00:17:11;;;;;;;10.23;6.63;;;;;;;;;;5115157;28;20466;-65
2023/03/13 00:19:39;;;;;;;12.70;8.50;;;;;;;;;;5115167;28;20887;-65
2023/03/13 00:22:05;;;;;;;8.50;7.70;;;;;;;;;;5115191;28;20481;-65
2023/03/13 00:24:33;;;;;;;9.37;7.43;;;;;;;;;;5115255;28;20878;-65
2023/03/13 00:27:02;;;;;;;13.30;8.20;;;;;;;;;;5115289;28;20986;-65
2023/03/13 00:29:29;;;;;;;11.50;7.70;;;;;;;;;;5115359;28;20867;-65
2023/03/13 00:31:57;;;;;;;10.73;8.37;;;;;;;;;;5114038;28;20518;-65
2023/03/13 00:34:26;;;;;;;11.90;8.60;;;;;;;;;;5115037;28;20446;-65
2023/03/13 00:36:53;;;;;;;11.40;9.63;;;;;;;;;;5115141;28;20442;-65
2023/03/13 00:39:20;;;;;;;12.63;8.87;;;;;;;;;;5114945;28;20907;-65
2023/03/13 00:41:47;;;;;;;16.20;8.43;;;;;;;;;;5114933;28;20457;-65
2023/03/13 00:44:14;;;;;;;15.07;8.57;;;;;;;;;;5114766;28;20446;-65
2023/03/13 00:46:41;;;;;;;14.07;9.37;;;;;;;;;;5114650;28;20529;-65
2023/03/13 00:49:09;;;;;;;12.43;8.50;;;;;;;;;;5114941;28;20538;-65
2023/03/13 00:51:36;;;;;;;12.17;8.70;;;;;;;;;;5114792;28;20486;-65
2023/03/13 00:54:03;;;;;;;11.40;8.00;;;;;;;;;;5114677;28;20457;-65
2023/03/13 00:56:30;;;;;;;13.63;8.60;;;;;;;;;;5114630;28;20495;-65
2023/03/13 00:58:57;;;;;;;14.10;8.93;;;;;;;;;;5114409;28;20549;-65
2023/03/13 01:01:25;;;;;;;14.83;8.30;;;;;;;;;;5114407;28;20450;-65
2023/03/13 01:03:53;;;;;;;14.67;8.90;;;;;;;;;;5114393;28;20538;-65
2023/03/13 01:06:22;;;;;;;15.40;8.67;;;;;;;;;;5114474;28;20448;-65
2023/03/13 01:08:50;;;;;;;14.37;9.23;;;;;;;;;;5114407;28;20452;-65
2023/03/13 01:11:18;;;;;;;15.03;9.30;;;;;;;;;;5114229;28;21035;-65
2023/03/13 01:13:45;;;;;;;12.60;9.00;;;;;;;;;;5114141;28;20537;-65
2023/03/13 01:16:13;;;;;;;13.03;8.90;;;;;;;;;;5114464;28;21040;-66
2023/03/13 01:18:41;;;;;;;13.33;8.77;;;;;;;;;;5114015;28;20809;-65
2023/03/13 01:21:08;;;;;;;15.53;8.33;;;;;;;;;;5114366;28;21027;-65
2023/03/13 01:23:37;;;;;;;15.07;9.67;;;;;;;;;;5114136;28;20529;-65
2023/03/13 01:26:05;;;;;;;15.10;8.27;;;;;;;;;;5113981;28;20506;-65
2023/03/13 01:28:32;;;;;;;14.70;8.70;;;;;;;;;;5113907;28;20446;-65
2023/03/13 01:30:59;;;;;;;12.67;9.40;;;;;;;;;;5114068;28;20442;-65
2023/03/13 01:33:27;;;;;;;12.27;8.83;;;;;;;;;;5113985;28;20452;-65
2023/03/13 01:36:01;;;;;;;15.83;9.10;;;;;;;;;;5113918;28;20473;-65
2023/03/13 01:38:28;;;;;;;17.63;9.50;;;;;;;;;;5113891;28;20452;-65
2023/03/13 01:40:56;;;;;;;17.40;9.73;;;;;;;;;;5113743;28;20508;-65
2023/03/13 01:43:24;;;;;;;10.00;8.40;;;;;;;;;;5113720;28;20456;-65
2023/03/13 01:45:54;;;;;;;13.07;8.87;;;;;;;;;;5113851;28;20442;-65
2023/03/13 01:48:22;;;;;;;11.73;8.27;;;;;;;;;;5113724;28;20449;-65
2023/03/13 01:50:49;;;;;;;9.57;8.17;;;;;;;;;;5113680;28;20449;-65
2023/03/13 01:53:16;;;;;;;9.20;7.30;;;;;;;;;;5113560;28;20482;-65
2023/03/13 01:55:43;;;;;;;9.37;7.10;;;;;;;;;;5113415;28;20452;-65
2023/03/13 01:58:11;;;;;;;10.80;8.40;;;;;;;;;;5113678;28;20495;-66
2023/03/13 02:00:38;;;;;;;9.60;7.60;;;;;;;;;;5113451;28;20488;-65
2023/03/13 02:03:07;;;;;;;10.87;7.53;;;;;;;;;;5113485;28;20453;-65
2023/03/13 02:05:35;;;;;;;11.53;7.50;;;;;;;;;;5113327;28;20972;-65
2023/03/13 02:08:03;;;;;;;11.43;8.13;;;;;;;;;;5113306;28;20884;-65
2023/03/13 02:10:31;;;;;;;9.97;6.90;;;;;;;;;;5113517;28;20457;-65
2023/03/13 02:12:59;;;;;;;14.07;7.70;;;;;;;;;;5113511;28;20467;-65
2023/03/13 02:15:28;;;;;;;14.43;8.07;;;;;;;;;;5113421;28;20808;-65
2023/03/13 02:17:55;;;;;;;13.80;8.10;;;;;;;;;;5113141;28;20570;-65
2023/03/13 02:20:23;;;;;;;9.27;6.83;;;;;;;;;;5113083;28;20477;-65
2023/03/13 02:22:54;;;;;;;9.17;6.43;;;;;;;;;;5113269;28;21009;-65
2023/03/13 02:25:24;;;;;;;11.07;6.50;;;;;;;;;;5113392;28;20476;-65
2023/03/13 02:27:53;;;;;;;9.00;6.30;;;;;;;;;;5113287;28;20453;-65
2023/03/13 02:30:20;;;;;;;10.20;6.40;;;;;;;;;;5113193;28;20445;-65
2023/03/13 02:32:47;;;;;;;7.90;5.60;;;;;;;;;;5113160;28;20541;-66
2023/03/13 02:35:17;;;;;;;9.17;5.97;;;;;;;;;;5113048;28;20442;-65
2023/03/13 02:37:45;;;;;;;8.50;5.37;;;;;;;;;;5113205;28;20446;-65
2023/03/13 02:40:13;;;;;;;11.57;5.53;;;;;;;;;;5113117;28;20577;-65
2023/03/13 02:42:42;;;;;;;7.00;6.30;;;;;;;;;;5113154;28;20495;-65
2023/03/13 02:45:13;;;;;;;8.50;5.63;;;;;;;;;;5113055;28;20546;-65
2023/03/13 02:47:41;;;;;;;7.70;6.00;;;;;;;;;;5112988;28;20816;-65
2023/03/13 02:50:10;;;;;;;5.50;4.90;;;;;;;;;;5113200;28;20452;-65
2023/03/13 02:52:38;;;;;;;6.80;4.03;;;;;;;;;;5113090;28;20446;-65
2023/03/13 02:55:07;;;;;;;6.10;4.70;;;;;;;;;;5114391;28;20808;-66
2023/03/13 02:57:34;;;;;;;9.23;5.70;;;;;;;;;;5116906;28;20450;-65
2023/03/13 03:00:01;;;;;;;5.17;4.17;;;;;;;;;;5116647;28;20512;-65
2023/03/13 03:02:30;;;;;;;5.77;4.37;;;;;;;;;;5116996;28;20438;-66
2023/03/13 03:04:57;;;;;;;8.63;4.73;;;;;;;;;;5116836;28;20533;-65
2023/03/13 03:07:23;;;;;;;7.50;4.03;;;;;;;;;;5116755;28;20533;-65
2023/03/13 03:09:50;;;;;;;8.13;4.90;;;;;;;;;;5116725;28;20549;-65
2023/03/13 03:12:17;;;;;;;8.30;4.03;;;;;;;;;;5116584;28;20442;-65
2023/03/13 03:14:44;;;;;;;8.83;4.80;;;;;;;;;;5116488;28;20450;-65
2023/03/13 03:17:11;;;;;;;8.50;4.40;;;;;;;;;;5116417;28;20566;-65
2023/03/13 03:19:39;;;;;;;8.03;4.57;;;;;;;;;;5116544;28;20474;-65
2023/03/13 03:22:06;;;;;;;13.80;4.70;;;;;;;;;;5116482;28;20446;-65
2023/03/13 03:24:33;;;;;;;9.67;3.30;;;;;;;;;;5116418;28;20449;-65
2023/03/13 03:27:00;;;;;;;10.63;3.70;;;;;;;;;;5116325;28;20456;-65
2023/03/13 03:29:27;;;;;;;10.90;3.70;;;;;;;;;;5116412;28;20537;-65
2023/03/13 03:31:54;;;;;;;4.50;3.37;;;;;;;;;;5116438;28;20454;-65
2023/03/13 03:34:21;;;;;;;10.10;4.57;;;;;;;;;;5116200;28;20961;-65
2023/03/13 03:36:50;;;;;;;6.40;3.40;;;;;;;;;;5116176;28;20448;-65
2023/03/13 03:39:17;;;;;;;12.13;3.40;;;;;;;;;;5116075;28;20544;-66
2023/03/13 03:41:43;;;;;;;11.47;4.33;;;;;;;;;;5115856;28;20579;-65
2023/03/13 03:44:10;;;;;;;11.97;5.13;;;;;;;;;;5116135;28;20545;-65
2023/03/13 03:46:37;;;;;;;9.00;2.87;;;;;;;;;;5116103;28;20537;-65
2023/03/13 03:49:04;;;;;;;8.97;3.80;;;;;;;;;;5115998;28;20537;-65
2023/03/13 03:51:31;;;;;;;4.07;2.77;;;;;;;;;;5115913;28;20536;-65
2023/03/13 03:53:59;;;;;;;14.93;3.20;;;;;;;;;;5115794;28;20533;-65
2023/03/13 03:56:26;;;;;;;7.33;3.70;;;;;;;;;;5115663;28;20441;-65
2023/03/13 03:58:53;;;;;;;6.50;3.27;;;;;;;;;;5115828;28;20492;-65
2023/03/13 04:01:20;;;;;;;6.57;3.50;;;;;;;;;;5115726;28;20573;-65
2023/03/13 04:03:47;;;;;;;6.60;3.57;;;;;;;;;;5115699;28;20536;-65
2023/03/13 04:06:14;;;;;;;11.20;3.97;;;;;;;;;;5115534;28;20455;-65
2023/03/13 04:08:41;;;;;;;7.33;3.57;;;;;;;;;;5115496;28;20454;-65
2023/03/13 04:11:09;;;;;;;9.00;3.10;;;;;;;;;;5115678;28;20529;-66
2023/03/13 04:13:36;;;;;;;6.23;3.23;;;;;;;;;;5115719;28;20542;-65
2023/03/13 04:16:07;;;;;;;9.57;3.40;;;;;;;;;;5115408;28;20537;-65
2023/03/13 04:18:33;;;;;;;7.73;3.83;;;;;;;;;;5115181;28;20556;-65
2023/03/13 04:21:01;;;;;;;7.87;3.30;;;;;;;;;;5115192;28;20481;-65
2023/03/13 04:23:28;;;;;;;8.57;3.97;;;;;;;;;;5115247;28;20812;-65
2023/03/13 04:25:55;;;;;;;7.37;3.23;;;;;;;;;;5115436;28;20446;-65
2023/03/13 04:28:23;;;;;;;12.53;3.30;;;;;;;;;;5115351;28;20450;-65
2023/03/13 04:30:51;;;;;;;7.97;3.73;;;;;;;;;;5115293;28;20532;-65
2023/03/13 04:33:18;;;;;;;11.60;3.73;;;;;;;;;;5115095;28;20854;-65
2023/03/13 04:35:45;;;;;;;11.13;3.40;;;;;;;;;;5114950;28;20445;-65
2023/03/13 04:38:11;;;;;;;8.23;3.67;;;;;;;;;;5114893;28;21032;-65
2023/03/13 04:40:38;;;;;;;8.40;4.13;;;;;;;;;;5114950;28;20481;-65
2023/03/13 04:43:05;;;;;;;8.13;3.60;;;;;;;;;;5114776;28;20932;-65
2023/03/13 04:45:33;;;;;;;15.77;3.53;;;;;;;;;;5114801;28;20632;-65
2023/03/13 04:48:00;;;;;;;13.10;3.80;;;;;;;;;;5114645;28;20450;-66
2023/03/13 04:50:27;;;;;;;11.73;3.10;;;;;;;;;;5114614;28;20538;-65
2023/03/13 04:52:54;;;;;;;16.10;3.10;;;;;;;;;;5114773;28;20448;-65
2023/03/13 04:55:21;;;;;;;9.83;3.50;;;;;;;;;;5114696;28;20797;-65
2023/03/13 04:57:48;;;;;;;8.47;2.73;;;;;;;;;;5114553;28;20446;-65
2023/03/13 05:00:15;;;;;;;11.30;3.90;;;;;;;;;;5114413;28;20810;-65
2023/03/13 05:02:44;;;;;;;6.80;3.13;;;;;;;;;;5114443;28;20557;-66
2023/03/13 05:05:10;;;;;;;9.60;3.37;;;;;;;;;;5114634;28;20446;-65
2023/03/13 05:07:37;;;;;;;9.80;3.60;;;;;;;;;;5114260;28;20949;-65
2023/03/13 05:10:05;;;;;;;10.00;3.47;;;;;;;;;;5114492;28;20454;-65
2023/03/13 05:12:32;;;;;;;13.73;3.67;;;;;;;;;;5114368;28;20442;-65
2023/03/13 05:14:59;;;;;;;10.50;3.30;;;;;;;;;;5114344;28;20556;-65
2023/03/13 05:17:26;;;;;;;11.20;3.57;;;;;;;;;;5113338;28;20472;-65
2023/03/13 05:19:54;;;;;;;7.17;3.03;;;;;;;;;;5114337;28;20860;-65
2023/03/13 05:22:21;;;;;;;7.90;4.13;;;;;;;;;;5114182;28;20541;-65
2023/03/13 05:24:48;;;;;;;10.00;4.10;;;;;;;;;;5114032;28;20529;-65
2023/03/13 05:27:14;;;;;;;13.77;4.10;;;;;;;;;;5113993;28;20457;-65
2023/03/13 05:29:41;;;;;;;8.87;3.30;;;;;;;;;;5113954;28;20528;-65
2023/03/13 05:32:08;;;;;;;13.20;3.23;;;;;;;;;;5113791;28;20536;-65
2023/03/13 05:34:35;;;;;;;10.83;3.67;;;;;;;;;;5113983;28;20544;-65
2023/03/13 05:37:03;;;;;;;10.70;4.07;;;;;;;;;;5113942;28;20442;-65
2023/03/13 05:39:30;;;;;;;10.70;3.40;;;;;;;;;;5113715;28;20544;-66
2023/03/13 05:41:57;;;;;;;22.03;4.00;;;;;;;;;;5113703;28;20488;-65
2023/03/13 05:44:24;;;;;;;14.73;3.27;;;;;;;;;;5113628;28;20457;-65
2023/03/13 05:46:51;;;;;;;14.00;3.83;;;;;;;;;;5113585;28;20536;-65
2023/03/13 05:49:18;;;;;;;13.07;3.53;;;;;;;;;;5113840;28;20534;-66
2023/03/13 05:51:45;;;;;;;10.70;3.30;;;;;;;;;;5113395;28;20472;-65
2023/03/13 05:54:13;;;;;;;12.50;4.37;;;;;;;;;;5113523;28;20541;-65
2023/03/13 05:56:40;;;;;;;8.30;3.93;;;;;;;;;;5113523;28;20441;-65
2023/03/13 05:59:07;;;;;;;13.97;4.40;;;;;;;;;;5113329;28;20450;-65
2023/03/13 06:01:34;;;;;;;13.50;4.20;;;;;;;;;;5113421;28;20573;-65
2023/03/13 06:04:01;;;;;;;11.00;3.70;;;;;;;;;;5113527;28;20448;-65
2023/03/13 06:06:28;;;;;;;13.97;4.23;;;;;;;;;;5113296;28;20532;-65
2023/03/13 06:08:55;;;;;;;17.50;4.10;;;;;;;;;;5113349;28;20445;-65
2023/03/13 06:11:23;;;;;;;9.53;3.60;;;;;;;;;;5113338;28;20452;-65
2023/03/13 06:13:51;;;;;;;12.13;3.57;;;;;;;;;;5113181;28;20449;-65
2023/03/13 06:16:18;;;;;;;10.00;3.57;;;;;;;;;;5113508;28;20452;-65
2023/03/13 06:18:45;;;;;;;10.63;4.10;;;;;;;;;;5112966;28;21078;-65
2023/03/13 06:21:12;;;;;;;16.03;4.23;;;;;;;;;;5113227;28;20488;-65
2023/03/13 06:23:41;;;;;;;10.87;4.10;;;;;;;;;;5112996;28;21035;-66
2023/03/13 06:26:07;;;;;;;15.37;8.63;;;;;;;;;;5112938;28;20529;-65
2023/03/13 06:28:36;;;;;;;13.40;6.40;;;;;;;;;;5112910;28;20442;-65
2023/03/13 06:31:03;;;;;;;17.87;5.23;;;;;;;;;;5115903;28;20782;-65
2023/03/13 06:33:30;;;;;;;12.60;4.73;;;;;;;;;;5117009;28;20474;-65
2023/03/13 06:35:58;;;;;;;10.27;3.43;;;;;;;;;;5117096;28;20944;-65
2023/03/13 06:38:25;;;;;;;11.57;3.73;;;;;;;;;;5116949;28;20488;-65
2023/03/13 06:40:52;;;;;;;8.83;3.43;;;;;;;;;;5116614;28;20840;-65
2023/03/13 06:43:19;;;;;;;14.37;3.90;;;;;;;;;;5117068;28;20446;-65
2023/03/13 06:45:47;;;;;;;17.53;4.17;;;;;;;;;;5117165;28;20541;-65
2023/03/13 06:48:14;;;;;;;14.83;4.90;;;;;;;;;;5117111;28;20932;-65
2023/03/13 06:50:42;;;;;;;13.97;4.23;;;;;;;;;;5116791;28;20529;-65
2023/03/13 06:53:14;;;;;;;14.30;4.10;;;;;;;;;;5116733;28;20448;-65
2023/03/13 06:55:41;;;;;;;12.70;4.53;;;;;;;;;;5116941;28;20499;-65
2023/03/13 06:58:08;;;;;;;9.33;4.07;;;;;;;;;;5117127;28;20556;-65
2023/03/13 07:00:35;;;;;;;11.73;4.10;;;;;;;;;;5116585;28;21035;-65
2023/03/13 07:03:04;;;;;;;17.80;4.40;;;;;;;;;;5116988;28;20453;-65
2023/03/13 07:05:31;;;;;;;11.83;5.03;;;;;;;;;;5116785;28;20452;-65
2023/03/13 07:07:58;;;;;;;13.70;4.63;;;;;;;;;;5116469;28;20568;-65
2023/03/13 07:10:24;;;;;;;12.67;4.40;;;;;;;;;;5116638;28;20540;-65
2023/03/13 07:12:51;;;;;;;12.97;4.90;;;;;;;;;;5116785;28;20489;-65
2023/03/13 07:15:18;;;;;;;14.00;4.80;;;;;;;;;;5116583;28;20544;-65
2023/03/13 07:17:45;;;;;;;8.27;4.90;;;;;;;;;;5116159;28;20474;-65
2023/03/13 07:20:14;;;;;;;16.13;4.63;;;;;;;;;;5116456;28;20540;-65
2023/03/13 07:22:41;;;;;;;18.30;4.90;;;;;;;;;;5116308;28;20597;-65
2023/03/13 07:25:08;;;;;;;13.40;4.63;;;;;;;;;;5116476;28;20446;-65
2023/03/13 07:27:35;;;;;;;8.60;3.90;;;;;;;;;;5116423;28;20446;-65
2023/03/13 07:30:02;;;;;;;13.83;4.60;;;;;;;;;;5116255;28;20442;-65
2023/03/13 07:32:32;;;;;;;19.47;4.50;;;;;;;;;;5116283;28;20446;-65
2023/03/13 07:34:58;;;;;;;17.07;4.00;;;;;;;;;;5115928;28;20453;-65
2023/03/13 07:37:27;;;;;;;12.87;4.07;;;;;;;;;;5116194;28;20854;-65
2023/03/13 07:39:54;;;;;;;19.20;3.97;;;;;;;;;;5116093;28;20586;-65
2023/03/13 07:42:20;;;;;;;11.60;4.40;;;;;;;;;;5115528;28;20488;-65
2023/03/13 07:44:47;;;;;;;12.47;4.30;;;;;;;;;;5116029;28;20446;-65
2023/03/13 07:47:14;;;;;;;11.93;4.13;;;;;;;;;;5115869;28;20933;-65
2023/03/13 07:49:42;;;;;;;15.10;5.10;;;;;;;;;;5115781;28;20448;-65
2023/03/13 07:52:09;;;;;;;11.97;4.40;;;;;;;;;;5115941;28;20537;-65
2023/03/13 07:54:38;;;;;;;18.30;4.60;;;;;;;;;;5115802;28;20449;-65
2023/03/13 07:57:05;;;;;;;11.77;3.43;;;;;;;;;;5115692;28;20527;-65
2023/03/13 07:59:31;;;;;;;18.30;4.57;;;;;;;;;;5115726;28;20468;-65
2023/03/13 08:01:58;;;;;;;12.00;4.13;;;;;;;;;;5115604;28;20488;-65
2023/03/13 08:04:25;;;;;;;14.17;4.90;;;;;;;;;;5115810;28;20532;-65
2023/03/13 08:06:53;;;;;;;17.27;5.27;;;;;;;;;;5115705;28;20446;-65
2023/03/13 08:09:20;;;;;;;10.60;4.07;;;;;;;;;;5115680;28;20498;-65
2023/03/13 08:11:48;;;;;;;13.03;4.00;;;;;;;;;;5115460;28;20777;-65
2023/03/13 08:14:15;;;;;;;10.47;4.17;;;;;;;;;;5115436;28;20806;-65
2023/03/13 08:16:42;;;;;;;13.30;3.93;;;;;;;;;;5115071;28;20446;-65
2023/03/13 08:19:10;;;;;;;12.73;4.20;;;;;;;;;;5115383;28;20489;-65
2023/03/13 08:21:38;;;;;;;10.60;3.90;;;;;;;;;;5115280;28;20488;-62
2023/03/13 08:24:06;;;;;;;12.30;4.03;;;;;;;;;;5115196;28;20549;-73
2023/03/13 08:26:34;;;;;;;12.47;4.30;;;;;;;;;;5115220;28;20450;-65
2023/03/13 08:29:02;;;;;;;20.67;5.30;;;;;;;;;;5115011;28;20477;-68
2023/03/13 08:31:30;;;;;;;12.20;4.80;;;;;;;;;;5114825;28;20446;-67
2023/03/13 08:33:58;;;;;;;11.40;4.20;;;;;;;;;;5115143;28;20450;-62
2023/03/13 08:36:26;;;;;;;10.47;4.33;;;;;;;;;;5115014;28;20459;-62
2023/03/13 08:38:53;;;;;;;8.50;3.20;;;;;;;;;;5115087;28;20453;-66
2023/03/13 08:41:21;;;;;;;12.17;3.90;;;;;;;;;;5114653;28;20553;-62
2023/03/13 08:43:48;;;;;;;8.27;3.13;;;;;;;;;;5114718;28;20537;-62
2023/03/13 08:46:16;;;;;;;5.93;2.73;;;;;;;;;;5114850;28;20541;-67
2023/03/13 08:48:43;;;;;;;9.37;3.00;;;;;;;;;;5114993;28;20552;-62
2023/03/13 08:51:11;;;;;;;13.03;5.93;;;;;;;;;;5114358;28;20941;-63
2023/03/13 08:53:38;;;;;;;10.80;5.80;;;;;;;;;;5113614;28;20445;-62
2023/03/13 08:56:06;;;;;;;12.00;4.37;;;;;;;;;;5114585;28;20547;-66
2023/03/13 08:58:33;;;;;;;7.10;3.57;;;;;;;;;;5114372;28;21004;-67
2023/03/13 09:01:02;;;;;;;6.67;2.87;;;;;;;;;;5114524;28;20532;-66
2023/03/13 09:03:30;;;;;;;8.23;2.70;;;;;;;;;;5114463;28;20446;-64
2023/03/13 09:05:57;;;;;;;8.77;2.60;;;;;;;;;;5113969;28;21028;-63
2023/03/13 09:08:25;;;;;;;11.60;2.50;;;;;;;;;;5113913;28;20450;-63
2023/03/13 09:10:55;;;;;;;8.07;3.30;;;;;;;;;;5114104;28;20804;-61
2023/03/13 09:13:22;;;;;;;11.93;2.93;;;;;;;;;;5114433;28;20819;-61
2023/03/13 09:15:54;;;;;;;9.60;2.90;;;;;;;;;;5114225;28;20449;-61
2023/03/13 09:18:21;;;;;;;7.00;3.27;;;;;;;;;;5113944;28;20513;-64
2023/03/13 09:20:49;;;;;;;6.17;3.10;;;;;;;;;;5113959;28;20541;-62
2023/03/13 09:23:16;;;;;;;6.50;2.83;;;;;;;;;;5113920;28;20565;-76
2023/03/13 09:25:43;;;;;;;5.90;3.20;;;;;;;;;;5114168;28;20446;-68
2023/03/13 09:28:10;;;;;;;11.77;2.97;;;;;;;;;;5114179;28;20442;-71
2023/03/13 09:30:37;;;;;;;6.07;3.10;;;;;;;;;;5113876;28;20989;-72
2023/03/13 09:33:04;;;;;;;10.53;2.77;;;;;;;;;;5113886;28;20589;-68
2023/03/13 09:35:31;;;;;;;11.30;3.40;;;;;;;;;;5113601;28;20964;-66
2023/03/13 09:37:59;;;;;;;6.13;2.43;;;;;;;;;;5113745;28;20858;-68
2023/03/13 09:40:27;;;;;;;6.87;2.77;;;;;;;;;;5113837;28;20446;-65
2023/03/13 09:42:55;;;;;;;9.80;3.00;;;;;;;;;;5113686;28;20936;-66
2023/03/13 09:45:25;;;;;;;5.80;2.70;;;;;;;;;;5113561;28;20536;-61
2023/03/13 09:47:55;;;;;;;9.00;2.90;;;;;;;;;;5113677;28;20483;-68
2023/03/13 09:50:24;;;;;;;8.87;2.63;;;;;;;;;;5113790;28;20801;-68
2023/03/13 09:52:52;;;;;;;9.67;2.50;;;;;;;;;;5113746;28;20457;-66
2023/03/13 09:55:22;;;;;;;7.50;2.67;;;;;;;;;;5113561;28;20929;-66
2023/03/13 09:57:51;;;;;;;8.30;2.80;;;;;;;;;;5113526;28;20452;-67
2023/03/13 10:00:20;;;;;;;9.23;2.70;;;;;;;;;;5113283;28;20904;-72
2023/03/13 10:02:52;;;;;;;5.07;2.40;;;;;;;;;;5113259;28;20878;-78
2023/03/13 10:05:21;;;;;;;3.03;2.10;;;;;;;;;;5113808;28;20446;-67
2023/03/13 10:07:48;;;;;;;7.00;2.57;;;;;;;;;;5113464;28;20452;-72
2023/03/13 10:10:16;;;;;;;6.67;2.27;;;;;;;;;;5099863;28;20454;-73
2023/03/13 10:12:49;;;;;;;6.83;3.43;;;;;;;;;;5113214;28;20843;-69
2023/03/13 10:15:31;;;;;;;8.83;2.13;;;;;;;;;;5099847;28;20451;-70
2023/03/13 10:17:59;;;;;;;4.03;2.07;;;;;;;;;;5103619;28;20991;-62
2023/03/13 10:20:28;;;;;;;4.80;2.20;;;;;;;;;;5113217;28;20544;-61
2023/03/13 10:22:57;;;;;;;7.70;2.50;;;;;;;;;;5112800;28;20454;-65
2023/03/13 10:25:28;;;;;;;4.40;2.30;;;;;;;;;;5112122;28;20256;-64
2023/03/13 10:27:56;;;;;;;6.50;2.10;;;;;;;;;;5113046;28;20960;-65
2023/03/13 10:30:25;;;;;;;5.03;2.35;;;;;;;;;;5112687;28;20451;-70
2023/03/13 10:32:54;;;;;;;7.00;2.20;;;;;;;;;;5113271;28;20612;-65
2023/03/13 10:35:21;;;;;;;4.53;1.87;;;;;;;;;;5113130;28;20540;-65
2023/03/13 10:37:48;;;;;;;4.65;2.53;;;;;;;;;;5112426;28;20538;-67
2023/03/13 10:40:21;;;;;;;7.33;2.07;;;;;;;;;;5111500;28;20274;-71
2023/03/13 10:42:48;;;;;;;2.93;1.70;;;;;;;;;;5113205;28;20477;-71
2023/03/13 10:45:18;;;;;;;4.18;1.90;;;;;;;;;;5111876;28;20798;-76
2023/03/13 10:47:44;;;;;;;5.50;2.23;;;;;;;;;;5112996;28;20196;-69
2023/03/13 10:50:18;;;;;;;3.40;1.80;;;;;;;;;;5112762;28;20453;-72
2023/03/13 10:52:46;;;;;;;5.53;2.28;;;;;;;;;;5111809;28;20451;-67
2023/03/13 10:55:14;;;;;;;5.88;2.15;;;;;;;;;;5110589;28;20933;-77
2023/03/13 10:57:43;;;;;;;3.72;2.10;;;;;;;;;;5111952;28;20802;-66
2023/03/13 11:00:25;;;;;;;5.35;2.08;;;;;;;;;;5111814;28;20455;-68
2023/03/13 11:02:54;;;;;;;3.10;1.80;;;;;;;;;;5111505;28;20490;-66
2023/03/13 11:05:30;;;;;;;3.43;2.00;;;;;;;;;;5112638;28;20454;-68
2023/03/13 11:07:57;;;;;;;2.63;1.70;;;;;;;;;;5112106;28;20479;-66
2023/03/13 11:10:25;;;;;;;5.90;1.80;;;;;;;;;;5112808;28;20541;-69
2023/03/13 11:12:52;;;;;;;7.03;3.30;;;;;;;;;;5112671;28;20446;-64
2023/03/13 11:15:21;;;;;;;2.00;1.90;;;;;;;;;;5110970;28;20805;-70
2023/03/13 11:17:49;;;;;;;2.37;1.63;;;;;;;;;;5115930;28;20565;-64
2023/03/13 11:20:23;;;;;;;3.63;1.90;;;;;;;;;;5116198;28;20447;-70
2023/03/13 11:22:55;;;;;;;4.53;1.63;;;;;;;;;;5116387;28;20470;-65
2023/03/13 11:25:24;;;;;;;3.23;1.77;;;;;;;;;;5116353;28;20869;-67
2023/03/13 11:27:57;;;;;;;1.23;1.10;;;;;;;;;;5116099;28;20533;-64
2023/03/13 11:30:33;;;;;;;2.40;1.40;;;;;;;;;;5113058;28;20454;-70
2023/03/13 11:33:02;;;;;;;3.10;2.43;;;;;;;;;;5116207;28;20448;-69
2023/03/13 11:35:36;;;;;;;3.27;1.50;;;;;;;;;;5115752;28;20533;-68
2023/03/13 11:38:06;;;;;;;2.07;1.30;;;;;;;;;;5115072;28;20537;-72
2023/03/13 11:40:37;;;;;;;5.53;1.73;;;;;;;;;;5115778;28;20972;-66
2023/03/13 11:43:23;;;;;;;1.77;0.90;;;;;;;;;;5115783;28;20484;-68
2023/03/13 11:45:54;;;;;;;3.83;1.10;;;;;;;;;;5115960;28;20804;-69
2023/03/13 11:48:32;;;;;;;1.55;1.20;;;;;;;;;;5114901;28;20457;-73
2023/03/13 11:51:02;;;;;;;2.77;1.50;;;;;;;;;;5115821;28;20734;-73
2023/03/13 11:53:36;;;;;;;1.90;1.40;;;;;;;;;;5114464;28;20859;-77
2023/03/13 11:56:07;;;;;;;2.10;1.13;;;;;;;;;;5115264;28;20942;-72
2023/03/13 11:58:39;;;;;;;2.00;1.10;;;;;;;;;;5115462;28;20663;-70
2023/03/13 12:01:07;;;;;;;1.20;0.80;;;;;;;;;;5112689;28;20552;-68
2023/03/13 12:03:37;;;;;;;2.47;1.27;;;;;;;;;;5115212;28;20481;-69
2023/03/13 12:06:07;;;;;;;2.20;2.00;;;;;;;;;;5115049;28;20442;-68
2023/03/13 12:08:37;;;;;;;1.20;1.10;;;;;;;;;;5115462;28;20542;-69
2023/03/13 12:11:07;;;;;;;1.00;0.90;;;;;;;;;;5114311;28;20450;-64
2023/03/13 12:13:38;;;;;;;2.83;2.03;;;;;;;;;;5115197;28;20481;-72
2023/03/13 12:16:10;;;;;;;4.50;1.60;;;;;;;;;;5115185;28;20542;-63
2023/03/13 12:18:38;;;;;;;1.20;1.10;;;;;;;;;;5115038;28;20470;-65
2023/03/13 12:21:11;;;;;;;1.70;1.60;;;;;;;;;;5115487;28;20453;-62
2023/03/13 12:23:42;;;;;;;1.10;0.90;;;;;;;;;;5115064;28;20510;-70
2023/03/13 12:26:12;;;;;;;1.97;1.00;;;;;;;;;;5113945;28;20547;-68
2023/03/13 12:28:41;;;;;;;1.83;1.13;;;;;;;;;;5113944;28;20454;-65
2023/03/13 12:31:12;;;;;;;1.30;0.83;;;;;;;;;;5112122;28;20481;-68
2023/03/13 12:33:42;;;;;;;1.93;1.77;;;;;;;;;;5110117;28;20450;-70
2023/03/13 12:36:13;;;;;;;3.33;1.00;;;;;;;;;;5114386;28;20446;-71
2023/03/13 12:38:42;;;;;;;1.03;0.80;;;;;;;;;;5114597;28;20878;-63
2023/03/13 12:41:14;;;;;;;1.20;1.10;;;;;;;;;;5113996;28;20886;-64
2023/03/13 12:43:43;;;;;;;2.10;0.80;;;;;;;;;;5102710;28;20938;-70
2023/03/13 12:46:24;;;;;;;1.50;0.77;;;;;;;;;;5114578;28;20546;-66
2023/03/13 12:48:55;;;;;;;0.70;0.70;;;;;;;;;;5104923;28;20448;-65
2023/03/13 12:51:30;;;;;;;1.33;0.90;;;;;;;;;;5094316;28;20447;-68
2023/03/13 12:54:09;;;;;;;3.30;1.03;;;;;;;;;;5108555;28;20537;-63
2023/03/13 12:56:42;;;;;;;1.40;1.10;;;;;;;;;;5114721;28;20461;-66
2023/03/13 12:59:11;;;;;;;1.03;0.93;;;;;;;;;;5114369;28;21039;-65
2023/03/13 13:01:41;;;;;;;2.03;1.17;;;;;;;;;;5114044;28;20447;-65
2023/03/13 13:04:11;;;;;;;1.73;1.00;;;;;;;;;;5114363;28;20476;-66
2023/03/13 13:07:00;;;;;;;2.13;1.10;;;;;;;;;;5114621;28;20442;-69
2023/03/13 13:09:28;;;;;;;2.60;0.83;;;;;;;;;;5114381;28;20451;-71
2023/03/13 13:11:56;;;;;;;1.57;0.80;;;;;;;;;;5114833;28;20604;-68
2023/03/13 13:14:56;;;;;;;1.10;0.90;;;;;;;;;;5114221;28;20460;-66
2023/03/13 13:17:29;;;;;;;2.50;1.10;;;;;;;;;;5114168;28;20478;-70
2023/03/13 13:19:56;;;;;;;1.40;1.30;;;;;;;;;;5114340;28;20446;-67
2023/03/13 13:22:42;;;;;;;2.63;1.33;;;;;;;;;;5114111;28;20443;-67
2023/03/13 13:25:24;;;;;;;1.07;0.97;;;;;;;;;;5113924;28;20901;-69
2023/03/13 13:27:53;;;;;;;1.40;0.97;;;;;;;;;;5114079;28;20435;-72
2023/03/13 13:30:30;;;;;;;2.07;1.10;;;;;;;;;;5114058;28;20900;-77
2023/03/13 13:33:17;;;;;;;1.33;1.23;;;;;;;;;;5113845;28;20451;-63
2023/03/13 13:35:46;;;;;;;1.20;1.10;;;;;;;;;;5113933;28;20807;-68
2023/03/13 13:38:33;;;;;;;1.40;1.30;;;;;;;;;;5113309;28;21037;-71
2023/03/13 13:41:00;;;;;;;1.00;0.90;;;;;;;;;;5112415;28;20796;-66
2023/03/13 13:43:30;;;;;;;1.20;1.10;;;;;;;;;;5112489;28;20566;-75
2023/03/13 13:46:00;;;;;;;1.30;1.20;;;;;;;;;;5109678;28;20543;-68
2023/03/13 13:48:31;;;;;;;2.80;2.57;;;;;;;;;;5113163;28;20484;-63
2023/03/13 13:51:17;;;;;;;1.50;1.40;;;;;;;;;;5113376;28;20508;-64
2023/03/13 13:53:46;;;;;;;1.10;1.00;;;;;;;;;;5111730;28;20484;-64
2023/03/13 13:56:29;;;;;;;3.73;1.60;;;;;;;;;;5112867;28;20857;-65
2023/03/13 13:58:57;;;;;;;1.33;1.10;;;;;;;;;;5112505;28;20921;-66
2023/03/13 14:01:23;;;;;;;1.67;1.57;;;;;;;;;;5107195;28;20448;-71
2023/03/13 14:03:51;;;;;;;1.23;0.90;;;;;;;;;;5110421;28;20570;-65
2023/03/13 14:06:20;;;;;;;1.73;1.43;;;;;;;;;;5113179;28;20539;-62
2023/03/13 14:08:49;;;;;;;1.50;1.20;;;;;;;;;;5103049;28;20452;-67
2023/03/13 14:11:23;;;;;;;2.50;1.30;;;;;;;;;;5110536;28;20455;-67
2023/03/13 14:14:05;;;;;;;1.40;1.17;;;;;;;;;;5113242;28;20186;-69
2023/03/13 14:16:31;;;;;;;1.00;0.93;;;;;;;;;;5113000;28;20448;-63
2023/03/13 14:18:58;;;;;;;1.37;1.27;;;;;;;;;;5113152;28;20806;-71
2023/03/13 14:21:26;;;;;;;1.53;1.10;;;;;;;;;;5112877;28;20459;-72
2023/03/13 14:23:54;;;;;;;1.33;1.23;;;;;;;;;;5113305;28;20478;-72
2023/03/13 14:26:22;;;;;;;1.40;1.27;;;;;;;;;;5113189;28;20813;-72
2023/03/13 14:28:52;;;;;;;1.50;1.40;;;;;;;;;;5113140;28;20448;-72
2023/03/13 14:31:26;;;;;;;2.30;1.40;;;;;;;;;;5112925;28;20582;-72
2023/03/13 14:33:53;;;;;;;1.57;1.20;;;;;;;;;;5112894;28;20457;-72
2023/03/13 14:36:20;;;;;;;1.37;1.23;;;;;;;;;;5113196;28;20538;-72
2023/03/13 14:38:56;;;;;;;3.17;1.30;;;;;;;;;;5113081;28;20466;-72
2023/03/13 14:41:24;;;;;;;1.40;1.30;;;;;;;;;;5112882;28;20449;-72
2023/03/13 14:43:51;;;;;;;1.47;1.37;;;;;;;;;;5112830;28;20494;-72
2023/03/13 14:46:23;;;;;;;2.87;1.10;;;;;;;;;;5113505;28;20448;-72